Site contains unofficial IBTrACS data. Visit the IBTrACS Website to access archived data.

1999 Severe Tropical Cyclone ELAINE (1999074S13118)


IBTrACS version v04r00. Visit IBTrACS website for data access.
Please direct all questions to the IBTrACS Q and A forum

Storm track - Intensity - Wind Radii - Intensity Data - Source Data - All data

Summary Information

Satellite image near maximum intensity
Storm ID 1999074S13118
Start Mar 15 01Z
Landfall Mar 20 01Z
Max Intensity 100 kt (Mar 18 06Z), 945 mb (Mar 18 01Z)
End Mar 20 10Z
ATCF IDs ,SH281999
Track status Best track data.

Storm track plot

Map of storm track

Intensity plots

Map of storm track

Radial wind information

Map of storm track

Position and Intensity Table

BASIN ISO_TIME_________ NATURE LAT LON WMO WIND WMO PRES USA WIND BOM WIND BOM PRES NEUMANN WIND
degrees north degrees east kts mb kts kts mb kts
SI 1999-03-15 01:00:00 NR -13.10 117.50 25 1002 25 1002
SI 03:00:00 NR -13.18 117.29 25 1002
SI 04:00:00 NR -13.20 117.20 25 1002 25 1002
SI 06:00:00 NR -13.20 117.07 25 1000
SI 07:00:00 NR -13.20 117.00 25 1000 25 1000
SI 09:00:00 NR -13.26 116.80 25 1000
SI 10:00:00 NR -13.30 116.70 25 1000 25 1000
SI 12:00:00 TS -13.29 115.68 25 26 1000 25
SI 15:00:00 TS -13.34 115.33 25 29 1000 25
SI 16:00:00 TS -13.33 115.18 30 1000 25 30 1000 25
SI 18:00:00 TS -13.37 115.16 25 31 998 25
SI 21:00:00 TS -13.50 115.25 25 32 997 25
SI 1999-03-16 00:00:00 TS -13.65 115.28 25 34 995 25
SI 01:00:00 TS -13.70 115.30 35 995 25 35 995 25
SI 03:00:00 TS -13.81 115.32 25 38 995 25
SI 04:00:00 TS -13.86 115.32 40 995 25 40 995 25
SI 06:00:00 TS -13.99 115.29 25 40 991 25
SI 07:00:00 TS -14.06 115.26 40 990 25 40 990 25
SI 09:00:00 TS -14.24 115.15 27 46 990 27
SI 10:00:00 TS -14.34 115.08 50 990 28 50 990 28
SI 12:00:00 TS -14.53 114.88 30 53 986 30
SI 13:00:00 TS -14.61 114.77 55 985 30 55 985 30
SI 15:00:00 TS -14.74 114.50 32 55 981 32
SI 16:00:00 TS -14.80 114.35 55 980 33 55 980 33
SI 18:00:00 TS -14.94 114.02 35 58 980 35
SI 19:00:00 TS -15.03 113.84 60 980 39 60 980 39
SI 21:00:00 TS -15.24 113.46 47 63 976 47
SI 22:00:00 TS -15.36 113.27 65 975 51 65 975 51
SI 1999-03-17 00:00:00 TS -15.60 112.88 60 68 971 60
SI 01:00:00 TS -15.72 112.71 70 970 62 70 970 62
SI 03:00:00 TS -15.96 112.43 67 70 966 67
SI 04:00:00 TS -16.09 112.30 70 965 70 70 965 70
SI 06:00:00 TS -16.35 112.04 75 70 965 75
SI 07:00:00 TS -16.48 111.93 70 965 77 70 965 77
SI 09:00:00 TS -16.73 111.74 82 73 965 82
SI 10:00:00 TS -16.85 111.66 75 965 85 75 965 85
SI 12:00:00 TS -17.09 111.52 90 75 961 90
SI 13:00:00 TS -17.21 111.45 75 960 90 75 960 90
SI 15:00:00 TS -17.44 111.31 90 78 960 90
SI 16:00:00 TS -17.56 111.25 80 960 90 80 960 90
SI 18:00:00 TS -17.82 111.12 90 83 956 90
SI 19:00:00 TS -17.97 111.06 85 955 90 85 955 90
SI 21:00:00 TS -18.31 110.93 90 88 951 90
SI 22:00:00 TS -18.48 110.88 90 950 90 90 950 90
SI 1999-03-18 00:00:00 TS -18.79 110.81 90 90 946 90
SI 01:00:00 TS -18.93 110.78 90 945 91 90 945 91
SI 03:00:00 TS -19.19 110.77 95 90 945 95
SI 04:00:00 TS -19.32 110.77 90 945 96 90 945 96
SI 06:00:00 TS -19.61 110.80 100 90 945 100
SI 07:00:00 TS -19.77 110.83 90 945 98 90 945 98
SI 09:00:00 TS -20.10 110.92 95 86 945 95
SI 10:00:00 TS -20.28 110.97 85 945 93 85 945 93
SI 12:00:00 TS -20.63 111.06 90 81 948 90
SI 13:00:00 TS -20.80 111.09 80 950 89 80 950 89
SI 15:00:00 TS -21.11 111.11 87 80 953 87
SI 16:00:00 TS -21.28 111.12 80 955 86 80 955 86
SI 18:00:00 TS -21.63 111.13 85 73 955 85
SI 19:00:00 TS -21.85 111.14 70 955 78 70 955 78
SI 21:00:00 TS -22.30 111.18 65 66 961 65
SI 22:00:00 TS -22.53 111.20 65 965 58 65 965 58
SI 1999-03-19 00:00:00 TS -22.97 111.23 45 61 968 45
SI 01:00:00 TS -23.15 111.25 60 970 45 60 970 45
SI 03:00:00 TS -23.43 111.32 45 60 973 45
SI 04:00:00 TS -23.57 111.37 60 975 45 60 975 45
SI 06:00:00 TS -23.90 111.49 45 56 975 45
SI 07:00:00 TS -24.09 111.57 55 975 42 55 975 42
SI 09:00:00 TS -24.47 111.80 37 55 978 37
SI 10:00:00 TS -24.67 111.92 55 980 34 55 980 34
SI 12:00:00 TS -25.06 112.16 30 51 980 30
SI 13:00:00 TS -25.24 112.26 50 980 30 50 980 30
SI 15:00:00 TS -25.61 112.44 30 43 983 30
SI 16:00:00 TS -25.79 112.54 40 985 30 40 985 30
SI 18:00:00 TS -26.19 112.79 30 36 988 30
SI 19:00:00 TS -26.42 112.95 35 990 29 35 990 29
SI 21:00:00 TS -26.91 113.30 27 31 993 27
SI 22:00:00 TS -27.16 113.49 30 995 26 30 995 26
SI 1999-03-20 00:00:00 TS -27.66 113.92 25 30 996 25
SI 01:00:00 TS -27.89 114.16 30 997 25 30 997 25
SI 03:00:00 TS -28.34 114.68 25 30 997 25
SI 04:00:00 TS -28.55 114.96 30 997 25 30 997 25
SI 06:00:00 TS -28.84 115.55 25 30 997 25
SI 07:00:00 NR -28.90 115.90 30 997 30 997
SI 09:00:00 NR -28.91 116.62 30 997
SI 10:00:00 NR -28.90 117.00 30 998 30 998

Source Information

Agency Information
USA bsh281999.txt
TOKYO
CMA
HKO
NEWDELHI
REUNION
BOM IDCKMSTM0S.csv:Line=20238:ELAINE
NADI
WELLINGTON
DS824
TD9636
TD9635
NEUMANN tracks.sh:Storm=1168:ELAINE:BSH281999:JTWC
MLC

All available IBTrACS Data

SEASON BASIN SUBBASIN ISO_TIME_________ NATURE LAT LON WMO WIND WMO PRES WMO AGENCY DIST2LAND LANDFALL IFLAG USA AGENCY USA ATCF_ID USA LAT USA LON USA WIND USA SSHS BOM LAT BOM LON BOM TYPE BOM WIND BOM PRES BOM CI BOM ROCI BOM EYE BOM POS_METHOD BOM PRES_METHOD NEUMANN LAT NEUMANN LON NEUMANN CLASS NEUMANN WIND STORM SPEED STORM DIR
Year degrees north degrees east kts mb km km degrees north degrees east kts 1 degrees north degrees east kts mb 1 nmile nmile degrees north degrees east kts kts degrees
1999 SI WA 1999-03-15 01:00:00 NR -13.10 117.50 25 1002 bom 418 418 ______O_______ -1 -13.10 117.50 20 25 1002 1.50 134 3 5 7 249
1999 SI WA 03:00:00 NR -13.18 117.29 438 438 ______P_______ -1 -13.18 117.29 20 25 1002 134 6 251
1999 SI WA 04:00:00 NR -13.20 117.20 25 1002 bom 443 443 ______O_______ -1 -13.20 117.20 20 25 1002 1.50 134 3 5 4 265
1999 SI WA 06:00:00 NR -13.20 117.07 448 448 ______P_______ -1 -13.20 117.07 20 25 1000 134 4 270
1999 SI WA 07:00:00 NR -13.20 117.00 25 1000 bom 453 453 ______O_______ -1 -13.20 117.00 20 25 1000 2.00 134 3 5 5 257
1999 SI WA 09:00:00 NR -13.26 116.80 470 470 ______P_______ -1 -13.26 116.80 20 25 1000 151 6 251
1999 SI WA 10:00:00 NR -13.30 116.70 25 1000 bom 471 471 ______O_______ -1 -13.30 116.70 20 25 1000 2.00 161 3 5 22 268
1999 SI WA 12:00:00 TS -13.29 115.68 487 487 O_____P_____O_ jtwc_sh SH281999 -13.10 114.00 25 -1 -13.39 116.51 20 26 1000 161 -13.10 114.00 TC 25 16 268
1999 SI WA 15:00:00 TS -13.34 115.33 496 496 P_____P_____P_ SH281999 -13.13 114.39 25 -1 -13.55 116.27 20 29 1000 161 -13.13 114.39 TC 25 7 266
1999 SI WA 16:00:00 TS -13.33 115.18 30 1000 bom 499 499 P_____O_____P_ SH281999 -13.15 114.50 25 -1 -13.60 116.20 20 30 1000 2.00 161 3 5 -13.15 114.50 TC 25 3 261
1999 SI WA 18:00:00 TS -13.37 115.16 509 509 O_____P_____O_ jtwc_sh SH281999 -13.20 114.70 25 -1 -13.70 116.09 20 31 998 161 -13.20 114.70 TC 25 2 158
1999 SI WA 21:00:00 TS -13.50 115.25 518 518 P_____P_____P_ SH281999 -13.33 114.89 25 -1 -13.84 115.98 20 32 997 161 -13.33 114.89 TC 25 3 158
1999 SI WA 1999-03-16 00:00:00 TS -13.65 115.28 539 539 O_____P_____O_ jtwc_sh SH281999 -13.50 115.00 25 -1 -13.96 115.85 20 34 995 161 -13.50 115.00 TC 25 3 166
1999 SI WA 01:00:00 TS -13.70 115.30 35 995 bom 539 539 P_____O_____P_ SH281999 -13.56 115.05 25 -1 -14.00 115.80 30 35 995 3.00 161 3 5 -13.56 115.05 TC 25 3 166
1999 SI WA 03:00:00 TS -13.81 115.32 550 550 P_____P_____P_ SH281999 -13.68 115.14 25 -1 -14.07 115.67 30 38 995 161 -13.68 115.14 TC 25 3 0
1999 SI WA 04:00:00 TS -13.86 115.32 40 995 bom 561 561 P_____O_____P_ SH281999 -13.75 115.18 25 -1 -14.10 115.60 30 40 995 3.00 161 3 5 -13.75 115.18 TC 25 4 0
1999 SI WA 06:00:00 TS -13.99 115.29 572 572 O_____P_____O_ jtwc_sh SH281999 -13.90 115.20 25 -1 -14.16 115.47 30 40 991 161 -13.90 115.20 TC 25 4 195
1999 SI WA 07:00:00 TS -14.06 115.26 40 990 bom 583 583 P_____O_____P_ SH281999 -13.99 115.19 25 -1 -14.20 115.40 30 40 990 3.00 161 3 5 -13.99 115.19 TC 25 6 207
1999 SI WA 09:00:00 TS -14.24 115.15 596 596 P_____P_____P_ SH281999 -14.20 115.13 27 -1 -14.32 115.21 30 46 990 196 -14.20 115.13 TC 27 7 213
1999 SI WA 10:00:00 TS -14.34 115.08 50 990 bom 610 610 P_____O_____P_ SH281999 -14.30 115.07 28 -1 -14.40 115.10 30 50 990 3.50 215 3 5 -14.30 115.07 TC 28 8 222
1999 SI WA 12:00:00 TS -14.53 114.88 637 637 O_____P_____O_ jtwc_sh SH281999 -14.50 114.90 30 -1 -14.60 114.85 30 53 986 232 -14.50 114.90 TC 30 8 227
1999 SI WA 13:00:00 TS -14.61 114.77 55 985 bom 649 649 P_____O_____P_ SH281999 -14.57 114.81 30 -1 -14.70 114.70 30 55 985 4.00 242 3 5 -14.57 114.81 TC 30 8 241
1999 SI WA 15:00:00 TS -14.74 114.50 660 660 P_____P_____P_ SH281999 -14.69 114.57 32 -1 -14.84 114.37 30 55 981 259 -14.69 114.57 TC 32 9 245
1999 SI WA 16:00:00 TS -14.80 114.35 55 980 bom 672 672 P_____O_____P_ SH281999 -14.75 114.43 33 -1 -14.90 114.20 30 55 980 4.00 269 3 5 -14.75 114.43 TC 33 10 247
1999 SI WA 18:00:00 TS -14.94 114.02 686 686 O_____P_____O_ jtwc_sh SH281999 -14.90 114.10 35 0 -15.03 113.87 30 58 980 269 -14.90 114.10 TC 35 11 245
1999 SI WA 19:00:00 TS -15.03 113.84 60 980 bom 697 687 P_____O_____P_ SH281999 -15.00 113.92 39 0 -15.10 113.70 30 60 980 4.00 269 3 5 -15.00 113.92 TC 39 12 241
1999 SI WA 21:00:00 TS -15.24 113.46 692 688 P_____P_____P_ SH281999 -15.22 113.51 47 0 -15.29 113.37 30 63 976 269 -15.22 113.51 TC 47 13 239
1999 SI WA 22:00:00 TS -15.36 113.27 65 975 bom 683 683 P_____O_____P_ SH281999 -15.34 113.30 51 0 -15.40 113.20 40 65 975 4.50 269 3 5 -15.34 113.30 TC 51 13 238
1999 SI WA 1999-03-17 00:00:00 TS -15.60 112.88 687 683 O_____P_____O_ jtwc_sh SH281999 -15.60 112.90 60 0 -15.60 112.85 40 68 971 251 -15.60 112.90 TC 60 13 236
1999 SI WA 01:00:00 TS -15.72 112.71 70 970 bom 689 679 P_____O_____P_ SH281999 -15.73 112.72 62 0 -15.70 112.70 40 70 970 4.50 242 3 5 -15.73 112.72 TC 62 11 230
1999 SI WA 03:00:00 TS -15.96 112.43 679 672 P_____P_____P_ SH281999 -16.00 112.40 67 1 -15.89 112.50 40 70 966 224 -16.00 112.40 TC 67 11 227
1999 SI WA 04:00:00 TS -16.09 112.30 70 965 bom 672 657 P_____O_____P_ SH281999 -16.14 112.25 70 1 -16.00 112.40 40 70 965 4.50 215 3 5 -16.14 112.25 TC 70 11 224
1999 SI WA 06:00:00 TS -16.35 112.04 650 643 O_____P_____O_ jtwc_sh SH281999 -16.40 112.00 75 1 -16.26 112.13 40 70 965 215 -16.40 112.00 TC 75 11 223
1999 SI WA 07:00:00 TS -16.48 111.93 70 965 bom 643 625 P_____O_____P_ SH281999 -16.52 111.89 77 1 -16.40 112.00 40 70 965 4.50 215 9 4 5 -16.52 111.89 TC 77 10 218
1999 SI WA 09:00:00 TS -16.73 111.74 629 619 P_____P_____P_ SH281999 -16.76 111.71 82 1 -16.67 111.79 40 73 965 215 -16.76 111.71 TC 82 9 215
1999 SI WA 10:00:00 TS -16.85 111.66 75 965 bom 619 597 P_____O_____P_ SH281999 -16.87 111.64 85 2 -16.80 111.70 40 75 965 4.50 215 9 4 5 -16.87 111.64 TC 85 8 210
1999 SI WA 12:00:00 TS -17.09 111.52 597 587 O_____P_____O_ jtwc_sh SH281999 -17.10 111.50 90 2 -17.07 111.56 40 75 961 215 -17.10 111.50 TC 90 8 209
1999 SI WA 13:00:00 TS -17.21 111.45 75 960 bom 592 572 P_____O_____P_ SH281999 -17.21 111.42 90 2 -17.20 111.50 40 75 960 4.50 215 9 4 5 -17.21 111.42 TC 90 8 209
1999 SI WA 15:00:00 TS -17.44 111.31 577 567 P_____P_____P_ SH281999 -17.43 111.28 90 2 -17.47 111.37 40 78 960 215 -17.43 111.28 TC 90 8 209
1999 SI WA 16:00:00 TS -17.56 111.25 80 960 bom 563 544 P_____O_____P_ SH281999 -17.54 111.22 90 2 -17.60 111.30 40 80 960 5.00 215 8 3 5 -17.54 111.22 TC 90 8 206
1999 SI WA 18:00:00 TS -17.82 111.12 549 540 O_____P_____O_ jtwc_sh SH281999 -17.80 111.10 90 2 -17.86 111.17 40 83 956 215 -17.80 111.10 TC 90 9 204
1999 SI WA 19:00:00 TS -17.97 111.06 85 955 bom 531 516 P_____O_____P_ SH281999 -17.95 111.04 90 2 -18.00 111.10 40 85 955 5.00 215 8 4 5 -17.95 111.04 TC 90 10 201
1999 SI WA 21:00:00 TS -18.31 110.93 516 507 P_____P_____P_ SH281999 -18.29 110.92 90 2 -18.34 110.96 40 88 951 215 -18.29 110.92 TC 90 11 198
1999 SI WA 22:00:00 TS -18.48 110.88 90 950 bom 499 481 P_____O_____P_ SH281999 -18.47 110.87 90 2 -18.50 110.90 40 90 950 5.50 215 8 4 5 -18.47 110.87 TC 90 10 193
1999 SI WA 1999-03-18 00:00:00 TS -18.79 110.81 481 473 O_____P_____O_ jtwc_sh SH281999 -18.80 110.80 90 2 -18.77 110.82 40 90 946 215 -18.80 110.80 TC 90 9 191
1999 SI WA 01:00:00 TS -18.93 110.78 90 945 bom 473 449 P_____O_____P_ SH281999 -18.94 110.77 91 2 -18.90 110.80 40 90 945 5.50 215 8 4 5 -18.94 110.77 TC 91 8 186
1999 SI WA 03:00:00 TS -19.19 110.77 449 442 P_____P_____P_ SH281999 -19.20 110.76 95 2 -19.16 110.79 40 90 945 215 -19.20 110.76 TC 95 8 0
1999 SI WA 04:00:00 TS -19.32 110.77 90 945 bom 442 420 P_____O_____P_ SH281999 -19.33 110.76 96 3 -19.30 110.80 40 90 945 5.50 215 8 4 5 -19.33 110.76 TC 96 9 0
1999 SI WA 06:00:00 TS -19.61 110.80 420 413 O_____P_____O_ jtwc_sh SH281999 -19.60 110.80 100 3 -19.63 110.79 40 90 945 197 -19.60 110.80 TC 100 9 173
1999 SI WA 07:00:00 TS -19.77 110.83 90 945 bom 407 379 P_____O_____P_ SH281999 -19.76 110.84 98 3 -19.80 110.80 40 90 945 5.50 188 3 5 -19.76 110.84 TC 98 10 167
1999 SI WA 09:00:00 TS -20.10 110.92 379 364 P_____P_____P_ SH281999 -20.09 110.94 95 2 -20.13 110.86 40 86 945 188 -20.09 110.94 TC 95 10 166
1999 SI WA 10:00:00 TS -20.28 110.97 85 945 bom 358 333 P_____O_____P_ SH281999 -20.26 111.00 93 2 -20.30 110.90 40 85 945 5.00 188 3 5 -20.26 111.00 TC 93 11 166
1999 SI WA 12:00:00 TS -20.63 111.06 333 324 O_____P_____O_ jtwc_sh SH281999 -20.60 111.10 90 2 -20.69 110.97 40 81 948 188 -20.60 111.10 TC 90 11 168
1999 SI WA 13:00:00 TS -20.80 111.09 80 950 bom 324 307 P_____O_____P_ SH281999 -20.74 111.13 89 2 -20.90 111.00 40 80 950 5.00 188 3 5 -20.74 111.13 TC 89 10 174
1999 SI WA 15:00:00 TS -21.11 111.11 307 301 P_____P_____P_ SH281999 -21.02 111.17 87 2 -21.30 111.01 40 80 953 188 -21.02 111.17 TC 87 10 174
1999 SI WA 16:00:00 TS -21.28 111.12 80 955 bom 295 280 P_____O_____P_ SH281999 -21.17 111.18 86 2 -21.50 111.00 40 80 955 5.00 188 3 5 -21.17 111.18 TC 86 10 178
1999 SI WA 18:00:00 TS -21.63 111.13 280 272 O_____P_____O_ jtwc_sh SH281999 -21.50 111.20 85 2 -21.90 110.99 40 73 955 170 -21.50 111.20 TC 85 11 0
1999 SI WA 19:00:00 TS -21.85 111.14 70 955 bom 272 248 P_____O_____P_ SH281999 -21.72 111.21 78 1 -22.10 111.00 40 70 955 4.50 161 3 5 -21.72 111.21 TC 78 13 176
1999 SI WA 21:00:00 TS -22.30 111.18 248 246 P_____P_____P_ SH281999 -22.20 111.24 65 1 -22.50 111.07 40 66 961 161 -22.20 111.24 TC 65 14 175
1999 SI WA 22:00:00 TS -22.53 111.20 65 965 bom 246 246 P_____O_____P_ SH281999 -22.45 111.25 58 0 -22.70 111.10 40 65 965 4.50 161 3 5 -22.45 111.25 TC 58 14 176
1999 SI WA 1999-03-19 00:00:00 TS -22.97 111.23 249 249 O_____P_____O_ jtwc_sh SH281999 -22.90 111.30 45 0 -23.12 111.10 40 61 968 161 -22.90 111.30 TC 45 12 176
1999 SI WA 01:00:00 TS -23.15 111.25 60 970 bom 241 230 P_____O_____P_ SH281999 -23.07 111.33 45 0 -23.30 111.10 30 60 970 4.00 161 3 5 -23.07 111.33 TC 45 9 171
1999 SI WA 03:00:00 TS -23.43 111.32 230 218 P_____P_____P_ SH281999 -23.36 111.40 45 0 -23.56 111.16 30 60 973 161 -23.36 111.40 TC 45 9 166
1999 SI WA 04:00:00 TS -23.57 111.37 60 975 bom 216 200 P_____O_____P_ SH281999 -23.50 111.45 45 0 -23.70 111.20 30 60 975 4.00 161 3 5 -23.50 111.45 TC 45 10 162
1999 SI WA 06:00:00 TS -23.90 111.49 200 185 O_____P_____O_ jtwc_sh SH281999 -23.80 111.60 45 0 -24.10 111.26 30 56 975 161 -23.80 111.60 TC 45 11 160
1999 SI WA 07:00:00 TS -24.09 111.57 55 975 bom 185 161 P_____O_____P_ SH281999 -23.99 111.71 42 0 -24.30 111.30 30 55 975 4.00 161 3 5 -23.99 111.71 TC 42 13 154
1999 SI WA 09:00:00 TS -24.47 111.80 162 153 P_____P_____P_ SH281999 -24.39 111.98 37 0 -24.63 111.42 30 55 978 161 -24.39 111.98 TC 37 13 151
1999 SI WA 10:00:00 TS -24.67 111.92 55 980 bom 155 142 P_____O_____P_ SH281999 -24.60 112.13 34 0 -24.80 111.50 30 55 980 4.00 161 3 5 -24.60 112.13 TC 34 14 151
1999 SI WA 12:00:00 TS -25.06 112.16 137 132 O_____P_____O_ jtwc_sh SH281999 -25.00 112.40 30 -1 -25.19 111.69 30 51 980 161 -25.00 112.40 TC 30 13 152
1999 SI WA 13:00:00 TS -25.24 112.26 50 980 bom 123 100 P_____O_____P_ SH281999 -25.16 112.49 30 -1 -25.40 111.80 30 50 980 4.00 161 3 5 -25.16 112.49 TC 30 12 155
1999 SI WA 15:00:00 TS -25.61 112.44 100 86 P_____P_____P_ SH281999 -25.48 112.64 30 -1 -25.86 112.05 30 43 983 161 -25.48 112.64 TC 30 12 155
1999 SI WA 16:00:00 TS -25.79 112.54 40 985 bom 86 49 P_____O_____P_ SH281999 -25.64 112.71 30 -1 -26.10 112.20 30 40 985 3.50 161 3 5 -25.64 112.71 TC 30 13 151
1999 SI WA 18:00:00 TS -26.19 112.79 49 39 O_____P_____O_ jtwc_sh SH281999 -26.00 112.90 30 -1 -26.57 112.58 30 36 988 161 -26.00 112.90 TC 30 15 150
1999 SI WA 19:00:00 TS -26.42 112.95 35 990 bom 41 37 P_____O_____P_ SH281999 -26.23 113.02 29 -1 -26.80 112.80 30 35 990 3.00 161 3 5 -26.23 113.02 TC 29 17 148
1999 SI WA 21:00:00 TS -26.91 113.30 37 31 P_____P_____P_ SH281999 -26.73 113.32 27 -1 -27.27 113.26 30 31 993 161 -26.73 113.32 TC 27 18 147
1999 SI WA 22:00:00 TS -27.16 113.49 30 995 bom 37 22 P_____O_____P_ SH281999 -26.99 113.49 26 -1 -27.50 113.50 20 30 995 161 3 5 -26.99 113.49 TC 26 19 144
1999 SI WA 1999-03-20 00:00:00 TS -27.66 113.92 22 0 O_____P_____O_ jtwc_sh SH281999 -27.50 113.90 25 -1 -27.98 113.96 20 30 996 143 -27.50 113.90 TC 25 19 141
1999 SI WA 01:00:00 TS -27.89 114.16 30 997 bom 0 0 P_____O_____P_ SH281999 -27.74 114.13 25 -1 -28.20 114.20 20 30 997 134 3 5 -27.74 114.13 TC 25 19 135
1999 SI WA 03:00:00 TS -28.34 114.68 0 0 P_____P_____P_ SH281999 -28.18 114.65 25 -1 -28.57 114.72 20 30 997 116 -28.18 114.65 TC 25 19 133
1999 SI WA 04:00:00 TS -28.55 114.96 30 997 bom 0 0 P_____O_____P_ SH281999 -28.39 114.93 25 -1 -28.70 115.00 20 30 997 107 3 5 -28.39 114.93 TC 25 18 123
1999 SI WA 06:00:00 TS -28.84 115.55 0 0 O_____P_____O_ jtwc_sh SH281999 -28.80 115.50 25 -1 -28.87 115.58 20 30 997 89 -28.80 115.50 TC 25 18 113
1999 SI WA 07:00:00 NR -28.90 115.90 30 997 bom 0 0 ______O_______ SH281999 -1 -28.90 115.90 20 30 997 80 3 5 TC 19 94
1999 SI WA 09:00:00 NR -28.91 116.62 0 0 ______P_______ SH281999 -1 -28.91 116.62 20 30 997 80 TC 19 90
1999 SI WA 10:00:00 NR -28.90 117.00 30 998 bom 0 ______O_______ SH281999 -1 -28.90 117.00 20 30 998 80 3 5 TC 20 88